sensor_id;sensor_type;location;lat;lon;timestamp;pressure;altitude;pressure_sealevel;temperature;humidity
35224;BME280;21367;51.930;8.112;2023-06-04T00:00:57;101497.63;;;12.43;63.92
35224;BME280;21367;51.930;8.112;2023-06-04T00:06:01;101497.78;;;12.46;64.77
35224;BME280;21367;51.930;8.112;2023-06-04T00:11:07;101499.88;;;12.54;65.53
35224;BME280;21367;51.930;8.112;2023-06-04T00:16:11;101492.28;;;12.39;65.79
35224;BME280;21367;51.930;8.112;2023-06-04T00:21:15;101483.81;;;12.41;66.54
35224;BME280;21367;51.930;8.112;2023-06-04T00:26:21;101487.19;;;12.40;66.85
35224;BME280;21367;51.930;8.112;2023-06-04T00:31:26;101486.31;;;12.40;67.11
35224;BME280;21367;51.930;8.112;2023-06-04T00:36:29;101485.81;;;12.29;67.92
35224;BME280;21367;51.930;8.112;2023-06-04T00:41:36;101484.94;;;12.29;67.87
35224;BME280;21367;51.930;8.112;2023-06-04T00:46:39;101484.94;;;12.29;68.06
35224;BME280;21367;51.930;8.112;2023-06-04T00:51:46;101484.34;;;11.98;68.98
35224;BME280;21367;51.930;8.112;2023-06-04T00:56:52;101482.25;;;12.09;69.23
35224;BME280;21367;51.930;8.112;2023-06-04T01:01:57;101476.75;;;12.01;69.19
35224;BME280;21367;51.930;8.112;2023-06-04T01:07:03;101469.84;;;11.84;69.86
35224;BME280;21367;51.930;8.112;2023-06-04T01:12:11;101471.09;;;11.74;70.42
35224;BME280;21367;51.930;8.112;2023-06-04T01:17:18;101469.53;;;11.78;70.15
35224;BME280;21367;51.930;8.112;2023-06-04T01:22:32;101466.34;;;11.66;70.36
35224;BME280;21367;51.930;8.112;2023-06-04T01:27:39;101467.63;;;11.74;70.33
35224;BME280;21367;51.930;8.112;2023-06-04T01:32:45;101471.28;;;11.61;70.37
35224;BME280;21367;51.930;8.112;2023-06-04T01:37:50;101468.50;;;11.56;70.50
35224;BME280;21367;51.930;8.112;2023-06-04T01:42:58;101460.03;;;11.59;70.69
35224;BME280;21367;51.930;8.112;2023-06-04T01:48:04;101459.25;;;11.44;71.02
35224;BME280;21367;51.930;8.112;2023-06-04T01:53:08;101454.28;;;11.30;71.65
35224;BME280;21367;51.930;8.112;2023-06-04T01:58:15;101456.97;;;11.32;71.75
35224;BME280;21367;51.930;8.112;2023-06-04T02:03:27;101459.56;;;11.16;72.55
35224;BME280;21367;51.930;8.112;2023-06-04T02:08:37;101458.66;;;11.15;72.45
35224;BME280;21367;51.930;8.112;2023-06-04T02:13:44;101467.28;;;11.16;73.05
35224;BME280;21367;51.930;8.112;2023-06-04T02:18:48;101463.97;;;11.02;73.37
35224;BME280;21367;51.930;8.112;2023-06-04T02:23:52;101470.72;;;11.00;73.75
35224;BME280;21367;51.930;8.112;2023-06-04T02:28:58;101466.38;;;10.82;74.52
35224;BME280;21367;51.930;8.112;2023-06-04T02:34:02;101470.72;;;10.83;74.44
35224;BME280;21367;51.930;8.112;2023-06-04T02:39:06;101474.47;;;10.74;74.95
35224;BME280;21367;51.930;8.112;2023-06-04T02:44:12;101476.56;;;10.64;74.96
35224;BME280;21367;51.930;8.112;2023-06-04T02:49:16;101473.75;;;10.60;75.34
35224;BME280;21367;51.930;8.112;2023-06-04T02:54:20;101477.09;;;10.59;75.79
35224;BME280;21367;51.930;8.112;2023-06-04T02:59:26;101480.09;;;10.50;75.70
35224;BME280;21367;51.930;8.112;2023-06-04T03:04:30;101480.47;;;10.41;75.58
35224;BME280;21367;51.930;8.112;2023-06-04T03:09:35;101479.66;;;10.42;76.10
35224;BME280;21367;51.930;8.112;2023-06-04T03:14:41;101477.88;;;10.41;76.90
35224;BME280;21367;51.930;8.112;2023-06-04T03:19:45;101481.00;;;10.36;77.13
35224;BME280;21367;51.930;8.112;2023-06-04T03:24:49;101479.06;;;10.32;77.15
35224;BME280;21367;51.930;8.112;2023-06-04T03:29:56;101480.75;;;10.31;77.19
35224;BME280;21367;51.930;8.112;2023-06-04T03:35:00;101476.66;;;10.20;77.61
35224;BME280;21367;51.930;8.112;2023-06-04T03:40:05;101476.84;;;10.23;77.35
35224;BME280;21367;51.930;8.112;2023-06-04T03:45:15;101479.47;;;10.25;78.17
35224;BME280;21367;51.930;8.112;2023-06-04T03:50:19;101481.03;;;10.06;79.04
35224;BME280;21367;51.930;8.112;2023-06-04T03:55:25;101483.94;;;10.12;79.26
35224;BME280;21367;51.930;8.112;2023-06-04T04:00:32;101475.25;;;10.25;78.17
35224;BME280;21367;51.930;8.112;2023-06-04T04:05:36;101483.22;;;10.15;78.94
35224;BME280;21367;51.930;8.112;2023-06-04T04:10:40;101486.75;;;10.17;79.54
35224;BME280;21367;51.930;8.112;2023-06-04T04:15:47;101498.28;;;10.09;79.63
35224;BME280;21367;51.930;8.112;2023-06-04T04:20:53;101488.88;;;10.24;79.22
35224;BME280;21367;51.930;8.112;2023-06-04T04:25:58;101492.53;;;10.28;79.29
35224;BME280;21367;51.930;8.112;2023-06-04T04:31:04;101497.66;;;10.28;79.29
35224;BME280;21367;51.930;8.112;2023-06-04T04:36:10;101494.72;;;10.36;79.16
35224;BME280;21367;51.930;8.112;2023-06-04T04:41:21;101491.78;;;10.45;79.24
35224;BME280;21367;51.930;8.112;2023-06-04T04:46:29;101499.88;;;10.68;78.33
35224;BME280;21367;51.930;8.112;2023-06-04T04:51:34;101503.75;;;10.76;78.42
35224;BME280;21367;51.930;8.112;2023-06-04T04:56:38;101502.31;;;10.97;77.78
35224;BME280;21367;51.930;8.112;2023-06-04T05:01:44;101502.31;;;11.14;77.80
35224;BME280;21367;51.930;8.112;2023-06-04T05:06:48;101503.38;;;11.17;78.01
35224;BME280;21367;51.930;8.112;2023-06-04T05:11:52;101497.88;;;11.27;77.80
35224;BME280;21367;51.930;8.112;2023-06-04T05:16:59;101496.72;;;11.55;77.18
35224;BME280;21367;51.930;8.112;2023-06-04T05:22:04;101503.63;;;11.72;75.95
35224;BME280;21367;51.930;8.112;2023-06-04T05:27:07;101498.84;;;11.46;75.84
35224;BME280;21367;51.930;8.112;2023-06-04T05:32:14;101499.56;;;11.43;74.26
35224;BME280;21367;51.930;8.112;2023-06-04T05:37:19;101507.84;;;11.54;75.00
35224;BME280;21367;51.930;8.112;2023-06-04T05:42:24;101507.78;;;11.87;74.31
35224;BME280;21367;51.930;8.112;2023-06-04T05:47:31;101517.03;;;12.17;72.71
35224;BME280;21367;51.930;8.112;2023-06-04T05:52:34;101516.44;;;12.23;73.09
35224;BME280;21367;51.930;8.112;2023-06-04T05:57:41;101501.31;;;12.66;70.87
35224;BME280;21367;51.930;8.112;2023-06-04T06:02:49;101510.50;;;12.79;70.57
35224;BME280;21367;51.930;8.112;2023-06-04T06:08:08;101518.25;;;12.79;70.98
35224;BME280;21367;51.930;8.112;2023-06-04T06:13:13;101513.22;;;13.02;69.14
35224;BME280;21367;51.930;8.112;2023-06-04T06:18:19;101527.56;;;12.95;67.49
35224;BME280;21367;51.930;8.112;2023-06-04T06:23:23;101525.41;;;13.04;67.34
35224;BME280;21367;51.930;8.112;2023-06-04T06:28:27;101521.50;;;13.32;66.59
35224;BME280;21367;51.930;8.112;2023-06-04T06:33:34;101525.34;;;13.61;68.60
35224;BME280;21367;51.930;8.112;2023-06-04T06:38:41;101526.66;;;13.72;64.82
35224;BME280;21367;51.930;8.112;2023-06-04T06:43:45;101533.84;;;14.00;64.28
35224;BME280;21367;51.930;8.112;2023-06-04T06:48:52;101536.75;;;14.29;64.92
35224;BME280;21367;51.930;8.112;2023-06-04T06:53:55;101543.13;;;14.80;63.48
35224;BME280;21367;51.930;8.112;2023-06-04T06:58:59;101547.47;;;14.81;62.60
35224;BME280;21367;51.930;8.112;2023-06-04T07:04:05;101548.50;;;15.09;61.21
35224;BME280;21367;51.930;8.112;2023-06-04T07:09:09;101561.31;;;15.28;61.94
35224;BME280;21367;51.930;8.112;2023-06-04T07:14:14;101555.63;;;15.63;61.49
35224;BME280;21367;51.930;8.112;2023-06-04T07:19:20;101548.97;;;15.95;60.03
35224;BME280;21367;51.930;8.112;2023-06-04T07:24:24;101550.78;;;16.50;59.59
35224;BME280;21367;51.930;8.112;2023-06-04T07:29:28;101549.91;;;16.50;56.36
35224;BME280;21367;51.930;8.112;2023-06-04T07:34:34;101550.78;;;16.77;58.01
35224;BME280;21367;51.930;8.112;2023-06-04T07:39:38;101560.41;;;17.40;56.77
35224;BME280;21367;51.930;8.112;2023-06-04T07:44:41;101554.06;;;17.62;54.57
35224;BME280;21367;51.930;8.112;2023-06-04T07:49:48;101551.81;;;17.76;55.76
35224;BME280;21367;51.930;8.112;2023-06-04T07:54:51;101547.25;;;17.67;54.53
35224;BME280;21367;51.930;8.112;2023-06-04T07:59:56;101552.09;;;18.20;53.47
35224;BME280;21367;51.930;8.112;2023-06-04T08:05:03;101552.97;;;18.20;51.29
35224;BME280;21367;51.930;8.112;2023-06-04T08:10:08;101558.25;;;18.96;52.21
35224;BME280;21367;51.930;8.112;2023-06-04T08:15:12;101559.41;;;18.71;50.16
35224;BME280;21367;51.930;8.112;2023-06-04T08:20:19;101553.63;;;19.27;49.31
35224;BME280;21367;51.930;8.112;2023-06-04T08:25:22;101557.69;;;19.56;50.12
35224;BME280;21367;51.930;8.112;2023-06-04T08:30:26;101552.47;;;19.56;48.04
35224;BME280;21367;51.930;8.112;2023-06-04T08:35:32;101555.88;;;19.52;46.78
35224;BME280;21367;51.930;8.112;2023-06-04T08:40:36;101552.81;;;19.72;47.51
35224;BME280;21367;51.930;8.112;2023-06-04T08:45:39;101553.81;;;20.33;45.68
35224;BME280;21367;51.930;8.112;2023-06-04T08:50:49;101563.06;;;20.66;45.96
35224;BME280;21367;51.930;8.112;2023-06-04T08:55:54;101564.84;;;20.71;45.16
35224;BME280;21367;51.930;8.112;2023-06-04T09:00:59;101553.94;;;21.00;44.37
35224;BME280;21367;51.930;8.112;2023-06-04T09:06:06;101562.25;;;21.35;43.24
35224;BME280;21367;51.930;8.112;2023-06-04T09:11:13;101561.78;;;21.73;41.54
35224;BME280;21367;51.930;8.112;2023-06-04T09:16:18;101558.94;;;20.82;40.83
35224;BME280;21367;51.930;8.112;2023-06-04T09:21:24;101565.22;;;21.70;41.31
35224;BME280;21367;51.930;8.112;2023-06-04T09:26:28;101568.00;;;21.84;38.52
35224;BME280;21367;51.930;8.112;2023-06-04T09:31:32;101564.91;;;21.38;40.65
35224;BME280;21367;51.930;8.112;2023-06-04T09:36:40;101563.72;;;21.95;42.98
35224;BME280;21367;51.930;8.112;2023-06-04T09:41:44;101550.47;;;22.96;40.48
35224;BME280;21367;51.930;8.112;2023-06-04T09:46:54;101562.03;;;23.49;39.01
35224;BME280;21367;51.930;8.112;2023-06-04T09:52:00;101557.53;;;23.13;39.98
35224;BME280;21367;51.930;8.112;2023-06-04T09:57:05;101560.38;;;23.97;39.02
35224;BME280;21367;51.930;8.112;2023-06-04T10:02:19;101554.28;;;24.26;38.01
35224;BME280;21367;51.930;8.112;2023-06-04T10:07:26;101554.25;;;23.83;36.19
35224;BME280;21367;51.930;8.112;2023-06-04T10:12:31;101555.94;;;24.76;35.58
35224;BME280;21367;51.930;8.112;2023-06-04T10:17:39;101546.34;;;24.39;38.76
35224;BME280;21367;51.930;8.112;2023-06-04T10:22:45;101541.03;;;23.32;37.93
35224;BME280;21367;51.930;8.112;2023-06-04T10:27:52;101555.06;;;23.54;37.56
35224;BME280;21367;51.930;8.112;2023-06-04T10:32:56;101560.38;;;23.88;36.70
35224;BME280;21367;51.930;8.112;2023-06-04T10:38:11;101545.34;;;24.99;35.59
35224;BME280;21367;51.930;8.112;2023-06-04T10:43:17;101546.31;;;24.73;35.12
35224;BME280;21367;51.930;8.112;2023-06-04T10:48:21;101548.13;;;24.20;38.64
35224;BME280;21367;51.930;8.112;2023-06-04T10:53:36;101543.72;;;24.61;35.87
35224;BME280;21367;51.930;8.112;2023-06-04T10:58:40;101539.50;;;26.00;32.63
35224;BME280;21367;51.930;8.112;2023-06-04T11:03:44;101536.88;;;26.01;32.01
35224;BME280;21367;51.930;8.112;2023-06-04T11:09:01;101547.19;;;24.70;36.76
35224;BME280;21367;51.930;8.112;2023-06-04T11:14:09;101543.63;;;26.30;35.36
35224;BME280;21367;51.930;8.112;2023-06-04T11:19:13;101539.16;;;26.35;35.36
35224;BME280;21367;51.930;8.112;2023-06-04T11:24:19;101537.91;;;25.76;33.32
35224;BME280;21367;51.930;8.112;2023-06-04T11:29:23;101518.28;;;27.60;31.07
35224;BME280;21367;51.930;8.112;2023-06-04T11:34:28;101528.25;;;26.73;32.28
35224;BME280;21367;51.930;8.112;2023-06-04T11:39:40;101523.53;;;24.72;33.95
35224;BME280;21367;51.930;8.112;2023-06-04T11:44:45;101527.59;;;25.48;33.33
35224;BME280;21367;51.930;8.112;2023-06-04T11:49:54;101520.00;;;28.19;30.41
35224;BME280;21367;51.930;8.112;2023-06-04T11:55:00;101517.34;;;26.24;35.71
35224;BME280;21367;51.930;8.112;2023-06-04T12:00:06;101515.50;;;28.24;31.89
35224;BME280;21367;51.930;8.112;2023-06-04T12:05:13;101517.97;;;26.50;31.94
35224;BME280;21367;51.930;8.112;2023-06-04T12:10:21;101514.47;;;26.47;32.48
35224;BME280;21367;51.930;8.112;2023-06-04T12:15:27;101515.72;;;28.11;30.39
35224;BME280;21367;51.930;8.112;2023-06-04T12:20:32;101514.00;;;29.02;30.99
35224;BME280;21367;51.930;8.112;2023-06-04T12:25:39;101498.69;;;28.74;33.31
35224;BME280;21367;51.930;8.112;2023-06-04T12:30:44;101501.38;;;28.25;32.92
35224;BME280;21367;51.930;8.112;2023-06-04T12:35:47;101502.88;;;28.83;30.38
35224;BME280;21367;51.930;8.112;2023-06-04T12:40:54;101498.28;;;28.93;30.38
35224;BME280;21367;51.930;8.112;2023-06-04T12:45:57;101500.41;;;27.76;32.10
35224;BME280;21367;51.930;8.112;2023-06-04T12:51:01;101499.16;;;28.92;31.13
35224;BME280;21367;51.930;8.112;2023-06-04T12:56:08;101497.63;;;27.31;33.64
35224;BME280;21367;51.930;8.112;2023-06-04T13:01:12;101498.72;;;27.74;33.96
35224;BME280;21367;51.930;8.112;2023-06-04T13:06:16;101486.50;;;27.66;35.63
35224;BME280;21367;51.930;8.112;2023-06-04T13:11:22;101485.13;;;30.02;32.07
35224;BME280;21367;51.930;8.112;2023-06-04T13:16:26;101492.22;;;28.88;32.99
35224;BME280;21367;51.930;8.112;2023-06-04T13:21:30;101480.84;;;28.41;32.61
35224;BME280;21367;51.930;8.112;2023-06-04T13:26:36;101485.56;;;30.17;31.01
35224;BME280;21367;51.930;8.112;2023-06-04T13:31:40;101489.81;;;30.57;31.02
35224;BME280;21367;51.930;8.112;2023-06-04T13:36:43;101489.38;;;29.36;32.62
35224;BME280;21367;51.930;8.112;2023-06-04T13:41:49;101484.94;;;28.55;32.60
35224;BME280;21367;51.930;8.112;2023-06-04T13:46:53;101484.00;;;29.39;31.44
35224;BME280;21367;51.930;8.112;2023-06-04T13:51:57;101468.38;;;31.23;30.40
35224;BME280;21367;51.930;8.112;2023-06-04T13:57:04;101467.25;;;29.40;31.42
35224;BME280;21367;51.930;8.112;2023-06-04T14:02:12;101465.81;;;30.62;30.51
35224;BME280;21367;51.930;8.112;2023-06-04T14:07:15;101472.13;;;29.55;32.32
35224;BME280;21367;51.930;8.112;2023-06-04T14:12:22;101464.84;;;27.44;33.56
35224;BME280;21367;51.930;8.112;2023-06-04T14:17:26;101460.88;;;29.47;32.38
35224;BME280;21367;51.930;8.112;2023-06-04T14:22:29;101462.19;;;30.01;33.27
35224;BME280;21367;51.930;8.112;2023-06-04T14:27:36;101463.53;;;29.47;32.71
35224;BME280;21367;51.930;8.112;2023-06-04T14:32:39;101455.97;;;28.49;32.16
35224;BME280;21367;51.930;8.112;2023-06-04T14:37:43;101446.50;;;30.26;29.15
35224;BME280;21367;51.930;8.112;2023-06-04T14:42:49;101451.59;;;31.22;29.60
35224;BME280;21367;51.930;8.112;2023-06-04T14:47:54;101449.59;;;30.09;30.84
35224;BME280;21367;51.930;8.112;2023-06-04T14:52:57;101438.88;;;30.74;29.71
35224;BME280;21367;51.930;8.112;2023-06-04T14:58:03;101449.81;;;29.67;30.40
35224;BME280;21367;51.930;8.112;2023-06-04T15:03:07;101442.03;;;30.28;31.15
35224;BME280;21367;51.930;8.112;2023-06-04T15:08:11;101441.91;;;28.01;31.72
35224;BME280;21367;51.930;8.112;2023-06-04T15:13:17;101439.78;;;30.12;31.05
35224;BME280;21367;51.930;8.112;2023-06-04T15:18:21;101438.53;;;31.15;30.69
35224;BME280;21367;51.930;8.112;2023-06-04T15:23:25;101436.34;;;29.00;30.92
35224;BME280;21367;51.930;8.112;2023-06-04T15:28:31;101438.13;;;28.14;33.18
35224;BME280;21367;51.930;8.112;2023-06-04T15:33:35;101424.41;;;30.25;31.68
35224;BME280;21367;51.930;8.112;2023-06-04T15:38:38;101423.31;;;30.32;31.27
35224;BME280;21367;51.930;8.112;2023-06-04T15:43:45;101424.19;;;31.75;28.89
35224;BME280;21367;51.930;8.112;2023-06-04T15:48:48;101423.72;;;31.62;29.77
35224;BME280;21367;51.930;8.112;2023-06-04T15:53:52;101428.66;;;31.46;28.82
35224;BME280;21367;51.930;8.112;2023-06-04T15:58:58;101423.63;;;30.53;31.08
35224;BME280;21367;51.930;8.112;2023-06-04T16:04:02;101419.88;;;31.71;28.31
35224;BME280;21367;51.930;8.112;2023-06-04T16:09:06;101400.69;;;31.36;28.36
35224;BME280;21367;51.930;8.112;2023-06-04T16:14:12;101407.91;;;31.31;27.93
35224;BME280;21367;51.930;8.112;2023-06-04T16:19:19;101404.88;;;30.59;30.27
35224;BME280;21367;51.930;8.112;2023-06-04T16:24:23;101398.63;;;29.29;30.95
35224;BME280;21367;51.930;8.112;2023-06-04T16:29:29;101389.66;;;31.20;29.62
35224;BME280;21367;51.930;8.112;2023-06-04T16:34:33;101387.03;;;30.92;29.67
35224;BME280;21367;51.930;8.112;2023-06-04T16:39:37;101376.19;;;31.00;28.42
35224;BME280;21367;51.930;8.112;2023-06-04T16:44:43;101385.38;;;31.16;28.10
35224;BME280;21367;51.930;8.112;2023-06-04T16:49:47;101381.09;;;30.54;29.51
35224;BME280;21367;51.930;8.112;2023-06-04T16:54:50;101386.50;;;31.09;27.71
35224;BME280;21367;51.930;8.112;2023-06-04T16:59:58;101392.88;;;30.74;30.04
35224;BME280;21367;51.930;8.112;2023-06-04T17:05:01;101393.72;;;29.49;30.39
35224;BME280;21367;51.930;8.112;2023-06-04T17:10:06;101389.09;;;30.84;29.25
35224;BME280;21367;51.930;8.112;2023-06-04T17:15:12;101383.16;;;30.45;28.90
35224;BME280;21367;51.930;8.112;2023-06-04T17:20:16;101389.75;;;31.17;29.01
35224;BME280;21367;51.930;8.112;2023-06-04T17:25:20;101379.44;;;31.08;29.36
35224;BME280;21367;51.930;8.112;2023-06-04T17:30:26;101386.56;;;29.86;30.24
35224;BME280;21367;51.930;8.112;2023-06-04T17:35:30;101383.91;;;29.17;31.00
35224;BME280;21367;51.930;8.112;2023-06-04T17:40:33;101385.13;;;29.40;31.19
35224;BME280;21367;51.930;8.112;2023-06-04T17:45:40;101386.75;;;27.82;33.31
35224;BME280;21367;51.930;8.112;2023-06-04T17:50:44;101383.44;;;26.55;34.64
35224;BME280;21367;51.930;8.112;2023-06-04T17:55:48;101387.28;;;25.37;37.34
35224;BME280;21367;51.930;8.112;2023-06-04T18:00:54;101392.97;;;24.73;38.33
35224;BME280;21367;51.930;8.112;2023-06-04T18:05:58;101394.94;;;23.91;39.38
35224;BME280;21367;51.930;8.112;2023-06-04T18:11:01;101393.97;;;24.30;38.73
35224;BME280;21367;51.930;8.112;2023-06-04T18:16:08;101387.00;;;22.76;40.73
35224;BME280;21367;51.930;8.112;2023-06-04T18:21:15;101392.09;;;22.47;42.10
35224;BME280;21367;51.930;8.112;2023-06-04T18:26:19;101394.84;;;22.77;42.65
35224;BME280;21367;51.930;8.112;2023-06-04T18:31:26;101396.41;;;22.29;41.92
35224;BME280;21367;51.930;8.112;2023-06-04T18:36:30;101403.13;;;21.87;42.20
35224;BME280;21367;51.930;8.112;2023-06-04T18:41:34;101398.13;;;22.23;43.54
35224;BME280;21367;51.930;8.112;2023-06-04T18:46:40;101391.16;;;22.26;43.85
35224;BME280;21367;51.930;8.112;2023-06-04T18:51:44;101403.91;;;21.73;44.73
35224;BME280;21367;51.930;8.112;2023-06-04T18:56:47;101395.22;;;21.83;44.75
35224;BME280;21367;51.930;8.112;2023-06-04T19:01:54;101397.16;;;22.07;45.51
35224;BME280;21367;51.930;8.112;2023-06-04T19:06:58;101393.63;;;22.03;46.07
35224;BME280;21367;51.930;8.112;2023-06-04T19:12:02;101403.22;;;22.06;46.19
35224;BME280;21367;51.930;8.112;2023-06-04T19:17:08;101402.94;;;21.64;46.48
35224;BME280;21367;51.930;8.112;2023-06-04T19:22:19;101409.81;;;21.52;48.07
35224;BME280;21367;51.930;8.112;2023-06-04T19:27:23;101415.78;;;21.35;48.23
35224;BME280;21367;51.930;8.112;2023-06-04T19:32:29;101417.25;;;21.10;49.41
35224;BME280;21367;51.930;8.112;2023-06-04T19:37:33;101423.22;;;20.97;49.96
35224;BME280;21367;51.930;8.112;2023-06-04T19:42:36;101426.50;;;20.80;51.13
35224;BME280;21367;51.930;8.112;2023-06-04T19:47:43;101443.19;;;19.69;51.76
35224;BME280;21367;51.930;8.112;2023-06-04T19:52:46;101448.47;;;18.79;55.97
35224;BME280;21367;51.930;8.112;2023-06-04T19:57:50;101450.63;;;19.02;56.98
35224;BME280;21367;51.930;8.112;2023-06-04T20:02:58;101455.81;;;18.18;60.23
35224;BME280;21367;51.930;8.112;2023-06-04T20:08:02;101466.09;;;18.14;61.31
35224;BME280;21367;51.930;8.112;2023-06-04T20:13:06;101473.69;;;18.42;61.73
35224;BME280;21367;51.930;8.112;2023-06-04T20:18:12;101475.38;;;18.02;62.86
35224;BME280;21367;51.930;8.112;2023-06-04T20:23:16;101484.16;;;18.08;63.38
35224;BME280;21367;51.930;8.112;2023-06-04T20:28:20;101491.44;;;17.86;64.79
35224;BME280;21367;51.930;8.112;2023-06-04T20:33:26;101501.28;;;17.65;65.34
35224;BME280;21367;51.930;8.112;2023-06-04T20:38:30;101499.13;;;17.80;65.01
35224;BME280;21367;51.930;8.112;2023-06-04T20:43:47;101507.13;;;17.56;66.19
35224;BME280;21367;51.930;8.112;2023-06-04T20:48:54;101516.19;;;17.72;65.51
35224;BME280;21367;51.930;8.112;2023-06-04T20:53:57;101519.78;;;17.44;66.38
35224;BME280;21367;51.930;8.112;2023-06-04T20:59:02;101523.69;;;16.98;67.98
35224;BME280;21367;51.930;8.112;2023-06-04T21:04:08;101526.69;;;16.81;69.09
35224;BME280;21367;51.930;8.112;2023-06-04T21:09:11;101523.69;;;16.69;69.55
35224;BME280;21367;51.930;8.112;2023-06-04T21:14:15;101526.06;;;16.90;67.98
35224;BME280;21367;51.930;8.112;2023-06-04T21:19:21;101519.94;;;16.32;70.72
35224;BME280;21367;51.930;8.112;2023-06-04T21:24:25;101533.09;;;16.65;69.44
35224;BME280;21367;51.930;8.112;2023-06-04T21:29:28;101526.81;;;16.30;70.86
35224;BME280;21367;51.930;8.112;2023-06-04T21:34:35;101528.88;;;15.88;71.94
35224;BME280;21367;51.930;8.112;2023-06-04T21:39:39;101526.94;;;16.35;69.86
35224;BME280;21367;51.930;8.112;2023-06-04T21:44:42;101527.44;;;16.23;71.05
35224;BME280;21367;51.930;8.112;2023-06-04T21:49:49;101533.94;;;16.10;70.89
35224;BME280;21367;51.930;8.112;2023-06-04T21:54:53;101532.53;;;15.94;71.19
35224;BME280;21367;51.930;8.112;2023-06-04T21:59:57;101541.59;;;15.08;73.17
35224;BME280;21367;51.930;8.112;2023-06-04T22:05:04;101534.25;;;15.68;72.36
35224;BME280;21367;51.930;8.112;2023-06-04T22:10:08;101539.53;;;15.70;71.62
35224;BME280;21367;51.930;8.112;2023-06-04T22:15:12;101537.44;;;15.61;71.56
35224;BME280;21367;51.930;8.112;2023-06-04T22:20:19;101536.75;;;15.17;72.33
35224;BME280;21367;51.930;8.112;2023-06-04T22:25:22;101535.78;;;15.15;73.33
35224;BME280;21367;51.930;8.112;2023-06-04T22:30:26;101541.16;;;14.97;73.21
35224;BME280;21367;51.930;8.112;2023-06-04T22:35:32;101543.00;;;14.77;74.21
35224;BME280;21367;51.930;8.112;2023-06-04T22:40:36;101547.72;;;14.65;74.52
35224;BME280;21367;51.930;8.112;2023-06-04T22:45:39;101554.63;;;14.23;76.45
35224;BME280;21367;51.930;8.112;2023-06-04T22:50:46;101546.41;;;13.70;78.63
35224;BME280;21367;51.930;8.112;2023-06-04T22:55:52;101542.88;;;14.10;78.42
35224;BME280;21367;51.930;8.112;2023-06-04T23:00:56;101545.56;;;13.71;78.81
35224;BME280;21367;51.930;8.112;2023-06-04T23:06:02;101543.38;;;14.43;76.25
35224;BME280;21367;51.930;8.112;2023-06-04T23:11:06;101542.78;;;14.71;74.74
35224;BME280;21367;51.930;8.112;2023-06-04T23:16:10;101547.13;;;14.72;74.69
35224;BME280;21367;51.930;8.112;2023-06-04T23:21:17;101553.19;;;14.73;74.35
35224;BME280;21367;51.930;8.112;2023-06-04T23:26:20;101558.13;;;14.46;75.68
35224;BME280;21367;51.930;8.112;2023-06-04T23:31:24;101562.56;;;14.27;76.57
35224;BME280;21367;51.930;8.112;2023-06-04T23:36:30;101559.22;;;14.09;77.03
35224;BME280;21367;51.930;8.112;2023-06-04T23:41:34;101557.97;;;14.20;77.05
35224;BME280;21367;51.930;8.112;2023-06-04T23:46:38;101553.34;;;14.13;76.88
35224;BME280;21367;51.930;8.112;2023-06-04T23:51:44;101556.75;;;14.12;77.42
35224;BME280;21367;51.930;8.112;2023-06-04T23:56:48;101555.53;;;14.04;77.66
